Time;durP1;ratioP1;P1;durP2;ratioP2;P2;SDS_P1;SDS_P2;PMS_P1;PMS_P2;Temp;Humidity;BMP_temperature;BMP_pressure;BME280_temperature;BME280_humidity;BME280_pressure;Samples;Min_cycle;Max_cycle;Signal;HPM_P1;HPM_P2
2021/10/27 00:00:10;;;;;;;0.20;0.20;;;7.40;99.90;;;;;;5014735;28;20022;-73
2021/10/27 00:02:36;;;;;;;0.20;0.20;;;7.40;99.90;;;;;;5013609;28;20025;-73
2021/10/27 00:05:04;;;;;;;0.20;0.20;;;7.40;99.90;;;;;;5013456;28;20521;-73
2021/10/27 00:07:30;;;;;;;0.20;0.20;;;7.50;99.90;;;;;;5014628;28;20421;-73
2021/10/27 00:09:56;;;;;;;0.30;0.30;;;7.40;99.90;;;;;;5014628;28;20442;-73
2021/10/27 00:12:22;;;;;;;0.50;0.50;;;7.30;99.90;;;;;;5013359;28;20118;-73
2021/10/27 00:14:48;;;;;;;0.30;0.30;;;7.40;99.90;;;;;;5013175;28;20113;-73
2021/10/27 00:17:14;;;;;;;0.43;0.38;;;7.30;99.90;;;;;;5014401;28;20097;-73
2021/10/27 00:19:40;;;;;;;1.20;1.08;;;7.30;99.90;;;;;;5014491;28;20538;-73
2021/10/27 00:22:06;;;;;;;0.30;0.30;;;7.30;99.90;;;;;;5014331;28;20038;-73
2021/10/27 00:24:31;;;;;;;0.20;0.20;;;7.20;99.90;;;;;;5014393;28;20026;-73
2021/10/27 00:26:57;;;;;;;0.20;0.20;;;7.20;99.90;;;;;;5014347;28;20469;-73
2021/10/27 00:29:23;;;;;;;0.55;0.30;;;7.30;99.90;;;;;;5014275;28;20025;-73
2021/10/27 00:31:48;;;;;;;1.73;1.63;;;7.10;99.90;;;;;;5012934;28;20022;-73
2021/10/27 00:34:14;;;;;;;0.88;0.88;;;7.10;99.90;;;;;;5012894;28;20034;-73
2021/10/27 00:36:40;;;;;;;0.60;0.60;;;7.10;99.90;;;;;;5012795;28;20029;-73
2021/10/27 00:39:06;;;;;;;0.28;0.28;;;7.00;99.90;;;;;;5014107;28;20114;-73
2021/10/27 00:41:32;;;;;;;0.43;0.43;;;7.00;99.90;;;;;;5014269;28;20118;-73
2021/10/27 00:43:58;;;;;;;0.20;0.20;;;7.00;99.90;;;;;;5013947;28;20076;-73
2021/10/27 00:46:25;;;;;;;0.57;0.57;;;7.00;99.90;;;;;;5013778;28;20390;-74
2021/10/27 00:48:51;;;;;;;0.28;0.28;;;7.00;99.90;;;;;;5013801;28;20030;-73
2021/10/27 00:51:18;;;;;;;0.20;0.20;;;7.10;99.90;;;;;;5013928;28;20018;-73
2021/10/27 00:53:46;;;;;;;0.47;0.47;;;7.20;99.90;;;;;;5013881;28;20034;-73
2021/10/27 00:56:13;;;;;;;0.20;0.20;;;7.30;99.90;;;;;;5028857;28;20022;-73
2021/10/27 00:58:39;;;;;;;0.30;0.30;;;7.40;99.90;;;;;;5013713;28;20033;-73
2021/10/27 01:01:05;;;;;;;0.30;0.30;;;7.40;99.90;;;;;;5012604;28;20022;-73
2021/10/27 01:03:35;;;;;;;0.50;0.50;;;7.40;99.90;;;;;;5013537;28;20041;-73
2021/10/27 01:06:01;;;;;;;0.30;0.30;;;7.30;99.90;;;;;;5013462;28;20092;-73
2021/10/27 01:08:27;;;;;;;0.28;0.28;;;7.30;99.90;;;;;;5012225;28;20052;-74
2021/10/27 01:10:53;;;;;;;0.35;0.35;;;7.20;99.90;;;;;;5013800;28;20026;-73
2021/10/27 01:13:19;;;;;;;0.20;0.20;;;7.20;99.90;;;;;;5013368;28;20030;-74
2021/10/27 01:15:45;;;;;;;0.20;0.20;;;7.20;99.90;;;;;;5011938;28;20390;-74
2021/10/27 01:18:10;;;;;;;0.20;0.20;;;7.10;99.90;;;;;;5013301;28;20034;-73
2021/10/27 01:20:36;;;;;;;0.20;0.20;;;7.20;99.90;;;;;;5013797;28;20084;-73
2021/10/27 01:23:02;;;;;;;0.20;0.20;;;7.20;99.90;;;;;;5011899;28;20033;-73
2021/10/27 01:25:28;;;;;;;0.20;0.20;;;7.30;99.90;;;;;;5013188;28;20345;-73
2021/10/27 01:27:56;;;;;;;0.30;0.30;;;7.30;99.90;;;;;;5013138;28;20025;-74
2021/10/27 01:30:23;;;;;;;0.20;0.20;;;7.30;99.90;;;;;;5011858;28;20026;-73
2021/10/27 01:32:51;;;;;;;0.30;0.30;;;7.30;99.90;;;;;;5013057;28;20075;-74
2021/10/27 01:35:17;;;;;;;0.25;0.25;;;7.40;99.90;;;;;;5012871;28;20097;-73
2021/10/27 01:37:44;;;;;;;0.30;0.30;;;7.40;99.90;;;;;;5013025;28;20470;-73
2021/10/27 01:40:15;;;;;;;0.73;0.73;;;7.20;99.90;;;;;;5013068;28;20237;-74
2021/10/27 01:42:42;;;;;;;0.20;0.20;;;7.20;99.90;;;;;;5012973;28;20029;-74
2021/10/27 01:45:08;;;;;;;0.43;0.43;;;7.20;99.90;;;;;;5011390;28;20072;-74
2021/10/27 01:47:35;;;;;;;7.45;5.68;;;7.10;99.90;;;;;;5012662;28;20413;-73
2021/10/27 01:50:02;;;;;;;0.30;0.30;;;7.00;99.90;;;;;;5012856;28;20497;-73
2021/10/27 01:52:27;;;;;;;0.30;0.30;;;7.00;99.90;;;;;;5012793;28;20022;-73
2021/10/27 01:54:53;;;;;;;0.30;0.30;;;6.90;99.90;;;;;;5012600;28;20033;-73
2021/10/27 01:57:19;;;;;;;1.25;0.65;;;6.80;99.90;;;;;;5012710;28;20057;-73
2021/10/27 01:59:45;;;;;;;0.40;0.40;;;6.80;99.90;;;;;;5012599;28;20029;-73
2021/10/27 02:02:11;;;;;;;0.25;0.25;;;6.70;99.90;;;;;;5012545;28;20030;-73
2021/10/27 02:04:37;;;;;;;0.40;0.40;;;6.80;99.90;;;;;;5011305;28;20033;-73
2021/10/27 02:07:03;;;;;;;0.22;0.22;;;6.80;99.90;;;;;;5011274;28;20444;-74
2021/10/27 02:09:29;;;;;;;0.20;0.20;;;6.80;99.90;;;;;;5012744;28;20017;-73
2021/10/27 02:11:55;;;;;;;0.22;0.22;;;6.80;99.90;;;;;;5011303;28;20025;-73
2021/10/27 02:14:21;;;;;;;0.20;0.20;;;6.70;99.90;;;;;;5012432;28;20554;-73
2021/10/27 02:16:47;;;;;;;0.30;0.30;;;6.80;99.90;;;;;;5012215;28;20075;-73
2021/10/27 02:19:13;;;;;;;0.20;0.20;;;6.90;99.90;;;;;;5010993;28;20076;-73
2021/10/27 02:21:39;;;;;;;0.50;0.50;;;7.00;99.90;;;;;;5011141;28;20033;-74
2021/10/27 02:24:05;;;;;;;0.32;0.32;;;7.10;99.90;;;;;;5012217;28;20413;-73
2021/10/27 02:26:31;;;;;;;0.20;0.20;;;7.00;99.90;;;;;;5010242;28;20017;-73
2021/10/27 02:28:57;;;;;;;0.20;0.20;;;6.90;99.90;;;;;;5010880;28;20033;-73
2021/10/27 02:31:23;;;;;;;0.20;0.20;;;6.90;99.90;;;;;;5012210;28;20486;-73
2021/10/27 02:33:49;;;;;;;0.20;0.20;;;6.80;99.90;;;;;;5010933;28;20036;-73
2021/10/27 02:36:14;;;;;;;0.20;0.20;;;6.70;99.90;;;;;;5012029;28;20028;-73
2021/10/27 02:38:42;;;;;;;0.73;0.47;;;6.60;99.90;;;;;;5012145;28;20104;-73
2021/10/27 02:41:09;;;;;;;0.30;0.30;;;6.50;99.90;;;;;;5012048;28;20026;-73
2021/10/27 02:43:35;;;;;;;0.30;0.30;;;6.50;99.90;;;;;;5012025;28;20022;-73
2021/10/27 02:46:01;;;;;;;0.20;0.20;;;6.40;99.90;;;;;;5011860;28;20442;-73
2021/10/27 02:48:26;;;;;;;0.30;0.30;;;6.60;99.90;;;;;;5011859;28;20151;-73
2021/10/27 02:50:52;;;;;;;0.17;0.17;;;6.60;99.90;;;;;;5012034;28;20477;-73
2021/10/27 02:53:18;;;;;;;0.30;0.30;;;6.50;99.90;;;;;;5011917;28;20091;-74
2021/10/27 02:55:44;;;;;;;0.30;0.30;;;6.50;99.90;;;;;;5011872;28;20026;-74
2021/10/27 02:58:10;;;;;;;0.28;0.28;;;6.50;99.90;;;;;;5011775;28;20025;-73
2021/10/27 03:00:35;;;;;;;0.20;0.20;;;6.50;99.90;;;;;;5011867;28;20032;-73
2021/10/27 03:03:02;;;;;;;0.20;0.20;;;6.60;99.90;;;;;;5010540;28;20037;-73
2021/10/27 03:05:28;;;;;;;0.30;0.30;;;6.60;99.90;;;;;;5011682;28;20076;-73
2021/10/27 03:07:54;;;;;;;0.20;0.20;;;6.70;99.90;;;;;;5027060;28;20413;-73
2021/10/27 03:10:20;;;;;;;0.30;0.30;;;6.60;99.90;;;;;;5011866;28;20163;-73
2021/10/27 03:12:46;;;;;;;0.30;0.30;;;6.60;99.90;;;;;;5010464;28;20053;-73
2021/10/27 03:15:12;;;;;;;0.20;0.20;;;6.40;99.90;;;;;;5010487;28;20061;-74
2021/10/27 03:17:38;;;;;;;0.30;0.30;;;6.30;99.90;;;;;;5011715;28;20026;-73
2021/10/27 03:20:05;;;;;;;0.28;0.28;;;6.30;99.90;;;;;;5011731;28;20033;-73
2021/10/27 03:22:30;;;;;;;0.20;0.20;;;6.20;99.90;;;;;;5011688;28;20029;-73
2021/10/27 03:24:56;;;;;;;0.20;0.20;;;6.30;99.90;;;;;;5011443;28;20029;-73
2021/10/27 03:27:22;;;;;;;0.20;0.20;;;6.30;99.90;;;;;;5010492;28;20533;-73
2021/10/27 03:29:48;;;;;;;0.20;0.20;;;6.30;99.90;;;;;;5010401;28;20026;-73
2021/10/27 03:32:14;;;;;;;0.30;0.30;;;6.40;99.90;;;;;;5011645;28;20037;-73
2021/10/27 03:34:40;;;;;;;0.20;0.20;;;6.30;99.90;;;;;;5011403;28;20030;-73
2021/10/27 03:37:06;;;;;;;0.20;0.20;;;6.10;99.90;;;;;;5012666;28;20478;-73
2021/10/27 03:39:32;;;;;;;0.30;0.30;;;6.10;99.90;;;;;;5015315;28;20033;-73
2021/10/27 03:41:58;;;;;;;0.30;0.30;;;6.10;99.90;;;;;;5015612;28;20528;-73
2021/10/27 03:44:24;;;;;;;0.30;0.30;;;6.10;99.90;;;;;;5014837;28;20101;-73
2021/10/27 03:46:51;;;;;;;0.50;0.50;;;6.30;99.90;;;;;;5015019;28;20526;-73
2021/10/27 03:49:18;;;;;;;0.47;0.47;;;6.30;99.90;;;;;;5014893;28;20072;-73
2021/10/27 03:51:44;;;;;;;0.30;0.30;;;6.20;99.90;;;;;;5015374;28;20084;-73
2021/10/27 03:54:09;;;;;;;0.38;0.38;;;6.30;99.90;;;;;;4997387;28;20506;-74
2021/10/27 03:56:35;;;;;;;0.20;0.20;;;6.30;99.90;;;;;;5013432;28;20034;-74
2021/10/27 03:59:01;;;;;;;0.30;0.30;;;6.20;99.90;;;;;;5013555;28;20105;-73
2021/10/27 04:01:27;;;;;;;1.25;1.15;;;6.10;99.90;;;;;;5014866;28;20022;-74
2021/10/27 04:03:53;;;;;;;4.38;0.90;;;6.10;99.90;;;;;;5014798;28;20033;-73
2021/10/27 04:06:18;;;;;;;3.92;3.67;;;6.30;99.90;;;;;;5014562;28;20037;-73
2021/10/27 04:08:44;;;;;;;0.85;0.85;;;6.20;99.90;;;;;;5014696;28;20030;-73
2021/10/27 04:11:10;;;;;;;0.30;0.30;;;6.20;99.90;;;;;;5014463;28;20057;-73
2021/10/27 04:13:37;;;;;;;0.30;0.30;;;6.10;99.90;;;;;;5014545;28;20061;-73
2021/10/27 04:16:03;;;;;;;0.20;0.20;;;6.10;99.90;;;;;;5014412;28;20087;-73
2021/10/27 04:18:29;;;;;;;0.20;0.20;;;6.10;99.90;;;;;;5014521;28;20038;-73
2021/10/27 04:20:55;;;;;;;0.40;0.40;;;6.10;99.90;;;;;;5014427;28;20617;-73
2021/10/27 04:23:21;;;;;;;0.30;0.30;;;6.10;99.90;;;;;;5014413;28;20025;-73
2021/10/27 04:25:47;;;;;;;0.30;0.30;;;6.10;99.90;;;;;;5014161;28;20033;-73
2021/10/27 04:28:12;;;;;;;0.20;0.20;;;6.20;99.90;;;;;;5014247;28;20056;-73
2021/10/27 04:30:38;;;;;;;0.47;0.47;;;6.30;99.90;;;;;;5014379;28;20018;-73
2021/10/27 04:33:17;;;;;;;0.30;0.30;;;6.40;99.90;;;;;;5014211;28;20030;-73
2021/10/27 04:35:43;;;;;;;0.30;0.30;;;6.50;99.90;;;;;;5012875;28;20692;-73
2021/10/27 04:38:09;;;;;;;1.23;1.20;;;6.60;99.90;;;;;;5014122;28;20018;-74
2021/10/27 04:40:35;;;;;;;0.20;0.20;;;6.80;99.90;;;;;;5014086;28;20026;-73
2021/10/27 04:43:01;;;;;;;0.20;0.20;;;6.80;99.90;;;;;;5013976;28;20028;-73
2021/10/27 04:45:26;;;;;;;0.30;0.30;;;6.70;99.90;;;;;;5013841;28;20036;-73
2021/10/27 04:47:52;;;;;;;0.25;0.25;;;6.60;99.90;;;;;;5013808;28;20556;-73
2021/10/27 04:50:18;;;;;;;1.58;1.48;;;6.60;99.90;;;;;;5013456;28;20026;-73
2021/10/27 04:52:43;;;;;;;0.30;0.30;;;6.70;99.90;;;;;;5013717;28;20493;-73
2021/10/27 04:55:09;;;;;;;0.30;0.30;;;6.80;99.90;;;;;;5013205;28;20105;-73
2021/10/27 04:57:35;;;;;;;0.30;0.30;;;6.80;99.90;;;;;;5013651;28;20029;-73
2021/10/27 05:00:01;;;;;;;0.20;0.20;;;6.70;99.90;;;;;;5012290;28;20026;-74
2021/10/27 05:02:26;;;;;;;0.43;0.43;;;6.70;99.90;;;;;;5012254;28;20022;-73
2021/10/27 05:04:52;;;;;;;0.95;0.95;;;6.60;99.90;;;;;;5012002;28;20096;-73
2021/10/27 05:07:18;;;;;;;0.30;0.30;;;6.40;99.90;;;;;;5013981;28;20030;-73
2021/10/27 05:09:45;;;;;;;0.30;0.30;;;6.40;99.90;;;;;;5013201;28;20052;-73
2021/10/27 05:12:11;;;;;;;0.30;0.30;;;6.30;99.90;;;;;;5013700;28;20438;-73
2021/10/27 05:14:39;;;;;;;0.80;0.47;;;6.20;99.90;;;;;;5013231;28;20041;-73
2021/10/27 05:17:09;;;;;;;0.20;0.20;;;6.20;99.90;;;;;;5013314;28;20026;-73
2021/10/27 05:19:39;;;;;;;0.30;0.30;;;6.20;99.90;;;;;;5011988;28;20478;-73
2021/10/27 05:22:06;;;;;;;0.50;0.50;;;6.10;99.90;;;;;;5013232;28;20018;-73
2021/10/27 05:24:32;;;;;;;0.30;0.30;;;6.20;99.90;;;;;;5013063;28;20110;-73
2021/10/27 05:26:58;;;;;;;0.22;0.22;;;6.30;99.90;;;;;;5013327;28;20045;-73
2021/10/27 05:29:24;;;;;;;0.40;0.40;;;6.30;99.90;;;;;;5013141;28;20149;-73
2021/10/27 05:31:50;;;;;;;0.40;0.40;;;6.30;99.90;;;;;;5011883;28;20530;-73
2021/10/27 05:34:16;;;;;;;0.25;0.25;;;6.30;99.90;;;;;;5013099;28;20053;-73
2021/10/27 05:36:43;;;;;;;0.30;0.30;;;6.00;99.90;;;;;;5013237;28;20493;-73
2021/10/27 05:39:11;;;;;;;0.32;0.32;;;6.00;99.90;;;;;;5012699;28;20088;-73
2021/10/27 05:41:39;;;;;;;0.20;0.20;;;6.10;99.90;;;;;;5012886;28;20026;-74
2021/10/27 05:44:05;;;;;;;0.30;0.30;;;6.00;99.90;;;;;;5011614;28;20026;-73
2021/10/27 05:46:31;;;;;;;0.30;0.30;;;6.10;99.90;;;;;;5012619;28;20074;-73
2021/10/27 05:49:09;;;;;;;0.22;0.22;;;6.10;99.90;;;;;;5012670;28;20113;-73
2021/10/27 05:51:47;;;;;;;0.40;0.40;;;6.20;99.90;;;;;;5012852;28;20026;-73
2021/10/27 05:56:57;;;;;;;0.30;0.30;;;6.40;99.90;;;;;;5012691;28;20104;-73
2021/10/27 05:59:23;;;;;;;0.28;0.28;;;6.40;99.90;;;;;;5011192;28;20113;-73
2021/10/27 06:01:49;;;;;;;0.50;0.50;;;6.20;99.90;;;;;;5010260;28;20112;-73
2021/10/27 06:04:18;;;;;;;0.30;0.30;;;6.20;99.90;;;;;;5010904;28;20030;-74
2021/10/27 06:06:47;;;;;;;0.20;0.20;;;6.20;99.90;;;;;;5012311;28;20485;-73
2021/10/27 06:09:16;;;;;;;0.20;0.20;;;6.20;99.90;;;;;;5012477;28;20050;-74
2021/10/27 06:11:43;;;;;;;0.50;0.50;;;6.30;99.90;;;;;;5012501;28;20029;-73
2021/10/27 06:14:09;;;;;;;0.30;0.30;;;6.20;99.90;;;;;;5010888;28;20117;-72
2021/10/27 06:16:35;;;;;;;0.30;0.30;;;6.20;99.90;;;;;;5012187;28;20351;-72
2021/10/27 06:19:01;;;;;;;0.30;0.30;;;6.10;99.90;;;;;;5012966;28;20397;-71
2021/10/27 06:21:27;;;;;;;0.30;0.30;;;6.20;99.90;;;;;;5017174;28;20336;-71
2021/10/27 06:23:53;;;;;;;0.30;0.30;;;6.10;99.90;;;;;;5029334;28;20033;-72
2021/10/27 06:26:21;;;;;;;0.73;0.60;;;6.20;99.90;;;;;;5029388;28;20370;-71
2021/10/27 06:31:24;;;;;;;;;;;6.20;99.90;;;;;;5011494;28;20095;-72
2021/10/27 06:34:00;;;;;;;0.22;0.22;;;6.30;99.90;;;;;;5012159;28;19905;-72
2021/10/27 06:46:55;;;;;;;0.28;0.28;;;6.50;99.90;;;;;;5012161;28;20026;-74
2021/10/27 06:49:21;;;;;;;0.30;0.30;;;6.50;99.90;;;;;;5011647;28;20038;-73
2021/10/27 06:51:46;;;;;;;0.20;0.20;;;6.40;99.90;;;;;;5010543;28;20075;-74
2021/10/27 06:54:12;;;;;;;0.30;0.30;;;6.40;99.90;;;;;;5011895;28;20033;-73
2021/10/27 06:56:38;;;;;;;0.30;0.30;;;6.50;99.90;;;;;;5010219;28;20029;-73
2021/10/27 06:59:10;;;;;;;0.25;0.25;;;6.70;99.90;;;;;;5010038;28;20030;-73
2021/10/27 07:02:08;;;;;;;;;;;6.70;99.90;;;;;;5010642;28;20566;-73
2021/10/27 07:15:01;;;;;;;0.30;0.30;;;6.90;99.90;;;;;;5015438;28;20025;-73
2021/10/27 07:17:29;;;;;;;0.30;0.30;;;7.00;99.90;;;;;;5014319;28;20101;-73
2021/10/27 07:19:55;;;;;;;1.90;0.88;;;7.20;99.90;;;;;;5011265;28;20049;-73
2021/10/27 07:22:21;;;;;;;0.20;0.20;;;7.20;99.90;;;;;;5023839;28;20478;-73
2021/10/27 07:24:47;;;;;;;0.30;0.30;;;7.40;99.90;;;;;;5025017;28;20030;-73
2021/10/27 07:27:13;;;;;;;0.30;0.30;;;7.50;99.90;;;;;;5035357;28;20052;-73
2021/10/27 07:29:44;;;;;;;0.30;0.30;;;7.50;99.90;;;;;;4998933;28;20018;-73
2021/10/27 07:32:13;;;;;;;0.20;0.20;;;7.60;99.90;;;;;;5015170;28;20389;-73
2021/10/27 07:34:42;;;;;;;0.30;0.30;;;7.70;99.90;;;;;;5013764;28;20053;-73
2021/10/27 07:42:18;;;;;;;0.20;0.20;;;8.00;99.90;;;;;;5014732;28;20533;-73
2021/10/27 07:44:44;;;;;;;0.20;0.20;;;8.10;99.90;;;;;;5014665;28;20149;-73
2021/10/27 07:47:11;;;;;;;0.40;0.40;;;8.30;99.90;;;;;;5015082;28;20014;-73
2021/10/27 07:49:37;;;;;;;0.20;0.20;;;8.40;99.90;;;;;;5013414;28;20524;-73
2021/10/27 07:52:04;;;;;;;1.40;1.35;;;8.60;99.90;;;;;;5014864;28;20109;-73
2021/10/27 07:54:30;;;;;;;0.20;0.20;;;8.80;99.90;;;;;;5014729;28;20363;-73
2021/10/27 07:56:56;;;;;;;0.30;0.30;;;8.80;99.90;;;;;;5013478;28;20145;-73
2021/10/27 07:59:21;;;;;;;0.28;0.28;;;8.80;99.90;;;;;;5014792;28;20034;-73
2021/10/27 08:01:48;;;;;;;0.40;0.40;;;8.90;99.90;;;;;;5014647;28;20101;-73
2021/10/27 08:04:14;;;;;;;0.20;0.20;;;8.90;99.90;;;;;;5013328;28;20052;-73
2021/10/27 08:06:40;;;;;;;0.30;0.30;;;9.00;99.90;;;;;;5014280;28;20026;-73
2021/10/27 08:09:05;;;;;;;0.20;0.20;;;9.10;99.90;;;;;;5013313;28;20501;-73
2021/10/27 08:11:32;;;;;;;0.15;0.15;;;9.20;99.90;;;;;;5013254;28;20022;-73
2021/10/27 08:13:58;;;;;;;0.28;0.28;;;9.40;99.90;;;;;;5014940;28;20217;-74
2021/10/27 08:16:24;;;;;;;0.10;0.10;;;9.40;99.90;;;;;;5012809;28;20120;-74
2021/10/27 08:18:50;;;;;;;0.20;0.20;;;9.50;99.90;;;;;;5014396;28;20025;-73
2021/10/27 08:21:16;;;;;;;0.20;0.20;;;9.60;99.90;;;;;;5014258;28;20029;-73
2021/10/27 08:23:44;;;;;;;0.20;0.20;;;9.70;99.90;;;;;;5013359;28;20026;-73
2021/10/27 08:26:15;;;;;;;0.40;0.40;;;9.80;99.90;;;;;;5012906;28;20394;-73
2021/10/27 08:28:44;;;;;;;0.30;0.30;;;9.80;99.90;;;;;;5029577;28;20029;-74
2021/10/27 08:31:31;;;;;;;0.20;0.20;;;10.00;99.90;;;;;;5012725;28;20041;-73
2021/10/27 08:36:24;;;;;;;0.20;0.20;;;10.10;99.90;;;;;;5013666;28;20034;-74
2021/10/27 08:38:50;;;;;;;0.35;0.35;;;10.20;99.90;;;;;;5012464;28;20026;-73
2021/10/27 08:41:16;;;;;;;0.20;0.20;;;10.30;99.90;;;;;;5013846;28;20505;-73
2021/10/27 08:43:42;;;;;;;0.20;0.20;;;10.40;99.90;;;;;;5012661;28;20051;-74
2021/10/27 08:46:10;;;;;;;1.38;1.27;;;10.60;99.90;;;;;;5013624;28;20022;-74
2021/10/27 08:48:37;;;;;;;0.20;0.20;;;10.60;99.90;;;;;;5013618;28;20030;-73
2021/10/27 08:51:08;;;;;;;0.20;0.20;;;10.70;99.90;;;;;;5013845;28;20018;-73
2021/10/27 08:53:35;;;;;;;0.20;0.20;;;10.80;99.90;;;;;;5028708;28;20481;-73
2021/10/27 08:56:04;;;;;;;0.20;0.20;;;11.00;99.90;;;;;;5013371;28;20053;-73
2021/10/27 08:58:36;;;;;;;0.17;0.17;;;11.10;99.90;;;;;;5013643;28;20088;-73
2021/10/27 09:01:54;;;;;;;;;;;11.20;99.90;;;;;;5013828;28;20528;-73
2021/10/27 09:07:00;;;;;;;0.20;0.20;;;11.50;99.90;;;;;;5013604;28;20022;-71
2021/10/27 09:15:31;;;;;;;0.28;0.28;;;12.00;99.90;;;;;;5013307;28;20490;-73
2021/10/27 09:38:58;;;;;;;0.10;0.10;;;15.70;93.60;;;;;;5012737;28;20072;-73
2021/10/27 10:06:16;;;;;;;0.20;0.20;;;19.40;69.40;;;;;;5012124;28;20025;-74
2021/10/27 10:08:47;;;;;;;0.45;0.45;;;19.70;68.40;;;;;;5012280;28;20021;-74
2021/10/27 10:11:13;;;;;;;0.23;0.23;;;19.60;70.10;;;;;;5011194;28;20265;-73
2021/10/27 10:13:40;;;;;;;0.32;0.32;;;19.70;68.00;;;;;;5012736;28;20285;-73
2021/10/27 10:16:07;;;;;;;1.15;0.25;;;19.40;68.70;;;;;;5012075;28;20489;-74
2021/10/27 10:18:34;;;;;;;1.65;1.55;;;19.50;67.70;;;;;;5012009;28;20033;-74
2021/10/27 10:21:01;;;;;;;0.10;0.10;;;19.40;67.00;;;;;;5013019;28;20032;-74
2021/10/27 10:23:27;;;;;;;0.90;0.63;;;19.30;66.70;;;;;;5013320;28;20108;-73
2021/10/27 10:26:08;;;;;;;0.10;0.10;;;19.80;66.90;;;;;;5010738;28;20528;-74
2021/10/27 10:28:40;;;;;;;0.10;0.10;;;20.10;63.90;;;;;;5011962;28;20056;-74
2021/10/27 10:31:07;;;;;;;0.95;0.40;;;20.30;64.00;;;;;;5012331;28;20030;-74
2021/10/27 10:33:45;;;;;;;0.15;0.15;;;20.70;61.50;;;;;;5010895;28;20025;-74
2021/10/27 10:36:20;;;;;;;0.63;0.63;;;21.00;59.90;;;;;;5010590;28;20024;-74
2021/10/27 10:44:52;;;;;;;0.15;0.15;;;21.00;58.70;;;;;;5010431;28;20041;-74
2021/10/27 10:59:03;;;;;;;7.97;1.58;;;21.80;56.30;;;;;;5009995;28;20026;-74
2021/10/27 11:40:49;;;;;;;;;;;22.10;51.80;;;;;;5011875;28;20022;-70
2021/10/27 11:43:28;;;;;;;0.10;0.10;;;22.40;51.00;;;;;;5010142;28;19909;-72
2021/10/27 11:45:56;;;;;;;0.10;0.10;;;22.40;51.70;;;;;;5010166;28;20367;-73
2021/10/27 11:49:13;;;;;;;0.10;0.10;;;22.50;51.50;;;;;;5011098;28;20034;-74
2021/10/27 11:51:15;;;;;;;0.45;0.45;;;21.80;52.10;;;;;;5004120;28;20548;-74
2021/10/27 11:53:42;;;;;;;0.15;0.15;;;21.20;52.80;;;;;;5010170;28;20068;-74
2021/10/27 11:56:14;;;;;;;0.03;0.03;;;21.30;53.30;;;;;;5010816;28;20382;-73
2021/10/27 11:58:45;;;;;;;2.28;0.35;;;21.50;53.30;;;;;;5010363;28;20119;-73
2021/10/27 12:01:22;;;;;;;0.30;0.30;;;21.50;53.10;;;;;;5014735;28;20516;-73
2021/10/27 12:03:48;;;;;;;1.00;0.73;;;21.20;53.60;;;;;;5014539;28;20026;-73
2021/10/27 12:06:33;;;;;;;0.35;0.35;;;21.60;53.70;;;;;;5013121;28;20073;-73
2021/10/27 12:14:19;;;;;;;0.55;0.55;;;21.80;54.30;;;;;;5014981;28;20500;-67
2021/10/27 12:19:18;;;;;;;0.55;0.43;;;21.50;54.40;;;;;;5013790;28;20030;-73
2021/10/27 12:21:54;;;;;;;0.50;0.50;;;21.50;54.60;;;;;;5013889;28;20061;-73
2021/10/27 12:24:23;;;;;;;0.00;0.00;;;21.60;54.20;;;;;;5013609;28;20375;-72
2021/10/27 12:27:08;;;;;;;0.30;0.30;;;21.80;53.20;;;;;;5012908;28;20470;-72
2021/10/27 12:29:36;;;;;;;0.10;0.10;;;21.80;52.90;;;;;;5013045;28;20026;-72
2021/10/27 12:32:05;;;;;;;0.55;0.55;;;21.80;53.30;;;;;;5012810;28;20034;-72
2021/10/27 12:34:32;;;;;;;0.28;0.28;;;21.70;53.60;;;;;;5014046;28;20029;-72
2021/10/27 12:36:59;;;;;;;0.08;0.08;;;21.60;53.30;;;;;;5012856;28;20414;-72
2021/10/27 12:39:41;;;;;;;0.50;0.50;;;21.60;53.80;;;;;;5013929;28;20336;-72
2021/10/27 12:42:10;;;;;;;;;;;21.20;53.70;;;;;;5013323;28;20482;-72
2021/10/27 12:44:53;;;;;;;0.65;0.45;;;21.30;53.50;;;;;;5012087;28;19940;-72
2021/10/27 12:47:27;;;;;;;0.13;0.13;;;21.20;53.50;;;;;;5013741;28;20050;-72
2021/10/27 12:50:13;;;;;;;0.30;0.30;;;20.40;55.90;;;;;;5014255;28;20029;-72
2021/10/27 12:52:54;;;;;;;0.70;0.70;;;20.70;55.40;;;;;;5013980;28;20457;-76
2021/10/27 12:55:27;;;;;;;0.17;0.17;;;20.50;56.10;;;;;;5012283;28;20454;-73
2021/10/27 12:57:54;;;;;;;0.77;0.77;;;20.40;56.90;;;;;;5012158;28;20458;-73
2021/10/27 13:06:40;;;;;;;1.40;1.30;;;18.90;62.10;;;;;;5013766;28;20033;-73
2021/10/27 13:11:43;;;;;;;0.30;0.30;;;18.00;64.50;;;;;;5013370;28;20029;-74
2021/10/27 13:30:01;;;;;;;0.40;0.40;;;16.50;72.60;;;;;;5011708;28;20018;-74
2021/10/27 13:32:26;;;;;;;0.52;0.52;;;16.50;73.10;;;;;;5011874;28;20033;-73
2021/10/27 13:34:53;;;;;;;0.38;0.38;;;16.10;73.90;;;;;;5012818;28;20030;-73
2021/10/27 13:37:19;;;;;;;0.10;0.10;;;16.20;74.90;;;;;;5011635;28;20026;-74
2021/10/27 13:39:47;;;;;;;1.15;1.05;;;16.20;75.30;;;;;;5011426;28;20029;-71
2021/10/27 13:42:23;;;;;;;0.55;0.55;;;16.20;75.70;;;;;;5013188;28;20030;-72
2021/10/27 13:45:01;;;;;;;6.60;1.10;;;16.00;77.20;;;;;;5012641;28;20034;-73
2021/10/27 14:09:08;;;;;;;0.20;0.20;;;15.70;80.10;;;;;;5011062;28;20018;-73
2021/10/27 14:11:41;;;;;;;0.68;0.68;;;15.60;80.50;;;;;;5010962;28;20047;-74
2021/10/27 14:16:50;;;;;;;0.20;0.20;;;15.50;81.90;;;;;;5012396;28;20044;-74
2021/10/27 14:22:42;;;;;;;0.43;0.40;;;15.30;82.30;;;;;;5011433;28;20038;-73
2021/10/27 14:47:14;;;;;;;0.60;0.60;;;15.30;85.20;;;;;;5011949;28;20022;-73
2021/10/27 15:33:07;;;;;;;0.98;0.95;;;14.20;90.10;;;;;;5012368;28;20037;-78
2021/10/27 15:35:44;;;;;;;2.67;1.42;;;14.10;90.30;;;;;;5014140;28;20048;-75
2021/10/27 15:51:29;;;;;;;0.20;0.20;;;13.80;91.50;;;;;;5013738;28;20153;-76
2021/10/27 15:53:55;;;;;;;0.85;0.85;;;13.80;91.50;;;;;;5014975;28;20129;-79
2021/10/27 15:56:23;;;;;;;0.55;0.55;;;13.90;91.00;;;;;;5014608;28;20030;-75
2021/10/27 15:58:49;;;;;;;0.20;0.20;;;13.90;90.80;;;;;;5013460;28;20030;-75
2021/10/27 16:01:15;;;;;;;0.20;0.20;;;13.80;91.00;;;;;;5013432;28;20083;-78
2021/10/27 16:03:41;;;;;;;0.20;0.20;;;13.80;91.10;;;;;;5013312;28;20481;-75
2021/10/27 16:06:08;;;;;;;0.10;0.10;;;13.90;91.10;;;;;;5013604;28;20144;-75
2021/10/27 16:08:37;;;;;;;0.30;0.30;;;13.90;91.20;;;;;;5013434;28;20053;-76
2021/10/27 16:11:04;;;;;;;0.20;0.20;;;14.00;91.10;;;;;;5013218;28;20053;-77
2021/10/27 16:13:32;;;;;;;0.30;0.30;;;13.90;91.30;;;;;;5013385;28;20029;-76
2021/10/27 16:15:59;;;;;;;5.03;0.45;;;13.80;91.30;;;;;;5014620;28;20056;-75
2021/10/27 16:44:32;;;;;;;0.22;0.22;;;12.00;99.90;;;;;;5068706;28;20403;-78
2021/10/27 16:46:58;;;;;;;0.20;0.20;;;11.90;99.90;;;;;;5051231;28;20025;-76
2021/10/27 16:49:24;;;;;;;0.28;0.28;;;12.00;99.90;;;;;;5069026;28;20017;-76
2021/10/27 16:51:50;;;;;;;1.80;1.65;;;12.10;99.90;;;;;;5069119;28;20023;-76
2021/10/27 16:54:17;;;;;;;0.55;0.55;;;12.20;99.90;;;;;;5068921;28;20029;-76
2021/10/27 16:56:44;;;;;;;0.30;0.30;;;12.20;99.90;;;;;;5065809;28;20031;-76
2021/10/27 16:59:10;;;;;;;0.20;0.20;;;12.30;99.90;;;;;;5074139;28;20013;-76
2021/10/27 17:01:35;;;;;;;0.20;0.20;;;12.30;99.90;;;;;;5078979;28;20028;-76
2021/10/27 17:04:01;;;;;;;0.20;0.20;;;12.40;99.90;;;;;;5087583;28;20024;-76
2021/10/27 17:06:27;;;;;;;0.20;0.20;;;12.50;99.90;;;;;;5089028;28;20103;-76
2021/10/27 17:08:53;;;;;;;0.20;0.20;;;12.50;99.90;;;;;;5070504;28;20062;-76
2021/10/27 17:11:19;;;;;;;0.25;0.25;;;12.60;99.90;;;;;;5088703;28;20020;-77
2021/10/27 17:13:45;;;;;;;0.20;0.20;;;12.60;99.90;;;;;;5083470;28;20035;-77
2021/10/27 17:16:11;;;;;;;0.40;0.40;;;12.60;99.90;;;;;;5067027;28;20024;-79
2021/10/27 17:18:38;;;;;;;0.20;0.20;;;12.70;99.90;;;;;;5068403;28;20031;-76
2021/10/27 17:21:08;;;;;;;0.20;0.20;;;12.70;99.90;;;;;;5067295;28;20090;-76
2021/10/27 17:23:36;;;;;;;0.45;0.45;;;12.70;99.90;;;;;;5068160;28;20017;-76
2021/10/27 17:26:02;;;;;;;0.20;0.20;;;12.70;99.90;;;;;;5066689;28;20027;-76
2021/10/27 17:28:28;;;;;;;0.20;0.20;;;12.80;99.90;;;;;;5068754;28;20104;-76
2021/10/27 17:30:54;;;;;;;0.22;0.22;;;12.80;99.90;;;;;;5067038;28;20388;-76
2021/10/27 17:33:20;;;;;;;0.20;0.20;;;12.70;99.90;;;;;;5066855;28;20056;-76
2021/10/27 17:35:46;;;;;;;0.40;0.40;;;12.60;99.90;;;;;;5066817;28;20052;-76
2021/10/27 17:38:12;;;;;;;0.20;0.20;;;12.50;99.90;;;;;;5066587;28;20033;-76
2021/10/27 17:40:41;;;;;;;0.20;0.20;;;12.50;99.90;;;;;;5067925;28;20021;-77
2021/10/27 17:43:09;;;;;;;4.03;3.70;;;12.50;99.90;;;;;;5066614;28;20071;-76
2021/10/27 17:45:37;;;;;;;0.93;0.93;;;12.50;99.90;;;;;;5067708;28;20037;-79
2021/10/27 17:48:28;;;;;;;0.20;0.20;;;12.50;99.90;;;;;;5066406;28;20021;-79
2021/10/27 17:58:39;;;;;;;0.30;0.30;;;12.40;99.90;;;;;;5054398;28;20029;-76
2021/10/27 18:01:08;;;;;;;0.28;0.28;;;12.30;99.90;;;;;;5053112;28;20040;-76
2021/10/27 18:03:36;;;;;;;0.57;0.57;;;12.30;99.90;;;;;;5054157;28;20025;-76
2021/10/27 18:06:08;;;;;;;0.20;0.20;;;12.30;99.90;;;;;;5054060;28;20024;-79
2021/10/27 18:08:51;;;;;;;;;;;12.20;99.90;;;;;;5053194;28;20021;-76
2021/10/27 18:11:21;;;;;;;0.20;0.20;;;12.00;99.90;;;;;;5052798;28;19959;-76
2021/10/27 18:13:50;;;;;;;0.77;0.77;;;11.80;99.90;;;;;;5054284;28;20059;-76
2021/10/27 18:18:55;;;;;;;0.25;0.25;;;11.40;99.90;;;;;;5052528;28;20074;-76